createdAt,value
2023-05-02T00:00:02.999Z,84
2023-05-02T00:00:32.037Z,85
2023-05-02T00:01:04.032Z,84
2023-05-02T00:01:36.101Z,84
2023-05-02T00:02:08.118Z,84
2023-05-02T00:02:35.753Z,84
2023-05-02T00:02:56.182Z,85
2023-05-02T00:03:28.406Z,85
2023-05-02T00:04:01.244Z,85
2023-05-02T00:04:32.246Z,85
2023-05-02T00:05:04.290Z,84
2023-05-02T00:05:36.419Z,84
2023-05-02T00:06:08.114Z,84
2023-05-02T00:06:35.591Z,84
2023-05-02T00:06:56.091Z,84
2023-05-02T00:07:28.051Z,85
2023-05-02T00:08:00.534Z,85
2023-05-02T00:08:32.041Z,85
2023-05-02T00:09:04.030Z,85
2023-05-02T00:09:36.092Z,85
2023-05-02T00:10:08.323Z,85
2023-05-02T00:10:36.781Z,85
2023-05-02T00:10:56.399Z,85
2023-05-02T00:11:28.955Z,85
2023-05-02T00:12:00.565Z,85
2023-05-02T00:12:32.057Z,85
2023-05-02T00:13:04.069Z,85
2023-05-02T00:13:36.071Z,85
2023-05-02T00:14:08.045Z,85
2023-05-02T00:14:36.455Z,85
2023-05-02T00:14:56.148Z,85
2023-05-02T00:15:28.520Z,85
2023-05-02T00:16:00.984Z,85
2023-05-02T00:16:32.091Z,86
2023-05-02T00:17:04.070Z,86
2023-05-02T00:17:36.166Z,86
2023-05-02T00:18:08.132Z,86
2023-05-02T00:18:35.583Z,85
2023-05-02T00:18:56.049Z,86
2023-05-02T00:19:28.088Z,86
2023-05-02T00:20:01.131Z,86
2023-05-02T00:20:32.053Z,86
2023-05-02T00:21:04.895Z,87
2023-05-02T00:21:36.134Z,87
2023-05-02T00:22:08.033Z,88
2023-05-02T00:22:35.596Z,88
2023-05-02T00:22:56.050Z,88
2023-05-02T00:23:28.049Z,88
2023-05-02T00:24:00.511Z,88
2023-05-02T00:24:32.030Z,88
2023-05-02T00:25:04.341Z,88
2023-05-02T00:25:36.072Z,88
2023-05-02T00:26:08.034Z,88
2023-05-02T00:26:35.839Z,88
2023-05-02T00:26:56.053Z,89
2023-05-02T00:27:28.880Z,89
2023-05-02T00:28:00.599Z,89
2023-05-02T00:28:32.036Z,89
2023-05-02T00:29:04.072Z,89
2023-05-02T00:29:36.087Z,89
2023-05-02T00:30:08.633Z,89
2023-05-02T00:30:36.612Z,89
2023-05-02T00:30:56.307Z,89
2023-05-02T00:31:28.093Z,89
2023-05-02T00:32:00.563Z,89
2023-05-02T00:32:32.047Z,89
2023-05-02T00:33:04.142Z,89
2023-05-02T00:33:36.255Z,89
2023-05-02T00:34:08.058Z,89
2023-05-02T00:34:35.586Z,89
2023-05-02T00:34:56.012Z,89
2023-05-02T00:35:28.372Z,89
2023-05-02T00:36:00.568Z,89
2023-05-02T00:36:32.066Z,89
2023-05-02T00:37:04.865Z,89
2023-05-02T00:37:36.126Z,89
2023-05-02T00:38:08.087Z,89
2023-05-02T00:38:35.606Z,89
2023-05-02T00:38:56.036Z,89
2023-05-02T00:39:28.010Z,89
2023-05-02T00:40:01.162Z,89
2023-05-02T00:40:32.439Z,89
2023-05-02T00:41:04.307Z,89
2023-05-02T00:41:37.005Z,89
2023-05-02T00:42:08.271Z,89
2023-05-02T00:42:36.200Z,89
2023-05-02T00:42:56.174Z,89
2023-05-02T00:43:30.712Z,89
2023-05-02T00:44:00.674Z,89
2023-05-02T00:44:32.312Z,89
2023-05-02T00:45:08.305Z,89
2023-05-02T00:45:36.251Z,89
2023-05-02T00:46:08.580Z,90
2023-05-02T00:46:36.592Z,90
2023-05-02T00:46:56.248Z,90
2023-05-02T00:47:28.161Z,90
2023-05-02T00:48:00.618Z,90
2023-05-02T00:48:32.241Z,90
2023-05-02T00:49:04.139Z,90
2023-05-02T00:49:36.431Z,90
2023-05-02T00:50:08.439Z,90
2023-05-02T00:50:35.630Z,90
2023-05-02T00:50:56.450Z,90
2023-05-02T00:51:28.195Z,90
2023-05-02T00:52:00.700Z,90
2023-05-02T00:52:32.034Z,90
2023-05-02T00:53:04.817Z,90
2023-05-02T00:53:36.224Z,90
2023-05-02T00:54:08.040Z,90
2023-05-02T00:54:35.627Z,90
2023-05-02T00:54:56.238Z,90
2023-05-02T00:55:28.313Z,90
2023-05-02T00:56:00.075Z,90
2023-05-02T00:56:32.064Z,90
2023-05-02T00:57:04.068Z,90
2023-05-02T00:57:36.406Z,90
2023-05-02T00:58:08.132Z,90
2023-05-02T00:58:35.638Z,90
2023-05-02T00:58:56.089Z,90
2023-05-02T00:59:28.938Z,90
2023-05-02T01:00:01.946Z,90
2023-05-02T01:00:32.091Z,90
2023-05-02T01:01:04.099Z,90
2023-05-02T01:01:36.183Z,90
2023-05-02T01:02:08.214Z,90
2023-05-02T01:02:36.547Z,90
2023-05-02T01:02:56.136Z,90
2023-05-02T01:03:28.112Z,90
2023-05-02T01:04:00.793Z,90
2023-05-02T01:04:32.093Z,90
2023-05-02T01:05:04.409Z,90
2023-05-02T01:05:36.206Z,90
2023-05-02T01:06:08.080Z,90
2023-05-02T01:06:35.785Z,90
2023-05-02T01:06:56.047Z,90
2023-05-02T01:07:28.072Z,90
2023-05-02T01:08:00.995Z,90
2023-05-02T01:08:32.098Z,90
2023-05-02T01:09:04.780Z,90
2023-05-02T01:09:36.122Z,90
2023-05-02T01:10:08.953Z,90
2023-05-02T01:10:35.665Z,90
2023-05-02T01:10:56.332Z,90
2023-05-02T01:11:28.042Z,90
2023-05-02T01:12:00.156Z,90
2023-05-02T01:12:32.031Z,90
2023-05-02T01:13:04.056Z,90
2023-05-02T01:13:36.129Z,90
2023-05-02T01:14:08.130Z,90
2023-05-02T01:14:35.831Z,90
2023-05-02T01:14:56.093Z,90
2023-05-02T01:15:29.599Z,90
2023-05-02T01:16:00.690Z,90
2023-05-02T01:16:32.139Z,90
2023-05-02T01:17:04.063Z,90
2023-05-02T01:17:36.341Z,90
2023-05-02T01:18:08.104Z,90
2023-05-02T01:18:36.446Z,90
2023-05-02T01:18:56.028Z,90
2023-05-02T01:19:28.268Z,90
2023-05-02T01:20:00.491Z,90
2023-05-02T01:20:32.343Z,90
2023-05-02T01:21:04.018Z,90
2023-05-02T01:21:36.088Z,90
2023-05-02T01:22:08.020Z,90
2023-05-02T01:22:35.709Z,90
2023-05-02T01:22:56.085Z,90
2023-05-02T01:23:28.073Z,90
2023-05-02T01:24:00.046Z,90
2023-05-02T01:24:32.053Z,90
2023-05-02T01:25:05.060Z,90
2023-05-02T01:25:36.151Z,90
2023-05-02T01:26:08.013Z,90
2023-05-02T01:26:35.624Z,90
2023-05-02T01:26:56.024Z,90
2023-05-02T01:27:28.022Z,90
2023-05-02T01:28:00.070Z,90
2023-05-02T01:28:32.012Z,90
2023-05-02T01:29:04.057Z,90
2023-05-02T01:29:36.095Z,90
2023-05-02T01:30:08.629Z,90
2023-05-02T01:30:35.825Z,90
2023-05-02T01:30:56.378Z,90
2023-05-02T01:31:28.939Z,90
2023-05-02T01:32:00.206Z,90
2023-05-02T01:32:32.043Z,90
2023-05-02T01:33:04.093Z,90
2023-05-02T01:33:36.104Z,90
2023-05-02T01:34:08.023Z,90
2023-05-02T01:34:36.406Z,90
2023-05-02T01:34:55.982Z,90
2023-05-02T01:35:28.332Z,90
2023-05-02T01:36:00.132Z,90
2023-05-02T01:36:31.975Z,90
2023-05-02T01:37:03.995Z,90
2023-05-02T01:37:36.210Z,90
2023-05-02T01:38:07.997Z,90
2023-05-02T01:38:35.581Z,90
2023-05-02T01:38:56.007Z,90
2023-05-02T01:39:28.036Z,90
2023-05-02T01:40:00.351Z,90
2023-05-02T01:40:32.315Z,90
2023-05-02T01:41:04.822Z,90
2023-05-02T01:41:36.086Z,90
2023-05-02T01:42:08.013Z,90
2023-05-02T01:42:35.580Z,90
2023-05-02T01:42:55.989Z,90
2023-05-02T01:43:27.990Z,90
2023-05-02T01:44:00.018Z,90
2023-05-02T01:44:31.976Z,90
2023-05-02T01:45:04.552Z,90
2023-05-02T01:45:36.012Z,90
2023-05-02T01:46:08.171Z,90
2023-05-02T01:46:35.771Z,90
2023-05-02T01:46:56.116Z,90
2023-05-02T01:47:28.967Z,90
2023-05-02T01:48:00.092Z,90
2023-05-02T01:48:32.037Z,90
2023-05-02T01:49:04.052Z,90
2023-05-02T01:49:36.413Z,90
2023-05-02T01:50:09.277Z,90
2023-05-02T01:50:36.352Z,90
2023-05-02T01:50:56.228Z,91
2023-05-02T01:51:27.992Z,91
2023-05-02T01:52:00.046Z,91
2023-05-02T01:52:31.976Z,91
2023-05-02T01:53:04.099Z,91
2023-05-02T01:53:36.045Z,91
2023-05-02T01:54:07.979Z,91
2023-05-02T01:54:35.673Z,91
2023-05-02T01:54:56.104Z,91
2023-05-02T01:55:28.298Z,91
2023-05-02T01:56:00.011Z,91
2023-05-02T01:56:32.020Z,91
2023-05-02T01:57:04.965Z,91
2023-05-02T01:57:36.119Z,91
2023-05-02T01:58:07.984Z,91
2023-05-02T01:58:35.590Z,91
2023-05-02T01:58:55.996Z,91
2023-05-02T01:59:28.018Z,91
2023-05-02T02:00:03.322Z,91
2023-05-02T02:00:32.027Z,91
2023-05-02T02:01:05.855Z,91
2023-05-02T02:01:36.137Z,91
2023-05-02T02:02:07.964Z,91
2023-05-02T02:02:35.626Z,91
2023-05-02T02:02:56.126Z,91
2023-05-02T02:03:28.873Z,91
2023-05-02T02:04:00.125Z,91
2023-05-02T02:04:32.340Z,91
2023-05-02T02:05:04.345Z,91
2023-05-02T02:05:36.367Z,91
2023-05-02T02:06:08.140Z,91
2023-05-02T02:06:36.544Z,91
2023-05-02T02:06:55.977Z,91
2023-05-02T02:07:28.013Z,91
2023-05-02T02:08:00.011Z,91
2023-05-02T02:08:32.001Z,91
2023-05-02T02:09:04.062Z,91
2023-05-02T02:09:36.108Z,91
2023-05-02T02:10:08.262Z,91
2023-05-02T02:10:35.658Z,91
2023-05-02T02:10:56.278Z,91
2023-05-02T02:11:28.984Z,91
2023-05-02T02:12:00.019Z,91
2023-05-02T02:12:32.026Z,91
2023-05-02T02:13:04.037Z,91
2023-05-02T02:13:36.070Z,91
2023-05-02T02:14:08.000Z,91
2023-05-02T02:14:36.500Z,91
2023-05-02T02:14:56.097Z,91
2023-05-02T02:15:28.505Z,91
2023-05-02T02:15:59.980Z,91
2023-05-02T02:16:32.051Z,91
2023-05-02T02:17:04.070Z,91
2023-05-02T02:17:36.096Z,91
2023-05-02T02:18:08.032Z,91
2023-05-02T02:18:35.582Z,91
2023-05-02T02:18:56.011Z,91
2023-05-02T02:19:27.984Z,91
2023-05-02T02:20:00.280Z,91
2023-05-02T02:20:32.317Z,91
2023-05-02T02:21:04.803Z,91
2023-05-02T02:21:36.025Z,91
2023-05-02T02:22:08.017Z,91
2023-05-02T02:22:35.575Z,91
2023-05-02T02:22:55.997Z,91
2023-05-02T02:23:27.991Z,91
2023-05-02T02:24:00.002Z,91
2023-05-02T02:24:31.983Z,91
2023-05-02T02:25:04.256Z,91
2023-05-02T02:25:36.023Z,91
2023-05-02T02:26:07.957Z,91
2023-05-02T02:26:35.584Z,91
2023-05-02T02:26:56.062Z,91
2023-05-02T02:27:28.854Z,91
2023-05-02T02:27:59.997Z,91
2023-05-02T02:28:32.009Z,91
2023-05-02T02:29:04.037Z,91
2023-05-02T02:29:36.076Z,91
2023-05-02T02:30:08.490Z,91
2023-05-02T02:30:37.997Z,91
2023-05-02T02:30:56.535Z,91
2023-05-02T02:31:28.192Z,91
2023-05-02T02:31:59.992Z,91
2023-05-02T02:32:32.041Z,91
2023-05-02T02:33:04.128Z,91
2023-05-02T02:33:35.996Z,91
2023-05-02T02:34:07.961Z,91
2023-05-02T02:34:35.643Z,91
2023-05-02T02:34:56.027Z,91
2023-05-02T02:35:28.286Z,91
2023-05-02T02:36:00.056Z,91
2023-05-02T02:36:31.979Z,91
2023-05-02T02:37:04.943Z,91
2023-05-02T02:37:36.017Z,91
2023-05-02T02:38:08.005Z,91
2023-05-02T02:38:35.600Z,91
2023-05-02T02:38:56.016Z,91
2023-05-02T02:39:27.992Z,91
2023-05-02T02:40:00.265Z,91
2023-05-02T02:40:32.244Z,91
2023-05-02T02:41:04.057Z,91
2023-05-02T02:41:36.443Z,91
2023-05-02T02:42:07.974Z,91
2023-05-02T02:42:35.673Z,91
2023-05-02T02:42:56.000Z,91
2023-05-02T02:43:28.718Z,91
2023-05-02T02:44:00.014Z,91
2023-05-02T02:44:32.015Z,91
2023-05-02T02:45:04.515Z,91
2023-05-02T02:45:36.062Z,91
2023-05-02T02:46:08.195Z,91
2023-05-02T02:46:36.415Z,91
2023-05-02T02:46:56.026Z,91
2023-05-02T02:47:28.022Z,91
2023-05-02T02:47:59.997Z,91
2023-05-02T02:48:31.966Z,91
2023-05-02T02:49:04.000Z,91
2023-05-02T02:49:36.034Z,91
2023-05-02T02:50:08.305Z,91
2023-05-02T02:50:35.561Z,91
2023-05-02T02:50:56.311Z,91
2023-05-02T02:51:28.034Z,91
2023-05-02T02:52:00.381Z,91
2023-05-02T02:52:32.018Z,91
2023-05-02T02:53:04.938Z,91
2023-05-02T02:53:36.029Z,91
2023-05-02T02:54:18.959Z,91
2023-05-02T02:54:35.578Z,91
2023-05-02T02:54:55.987Z,91
2023-05-02T02:55:28.284Z,91
2023-05-02T02:55:59.967Z,91
2023-05-02T02:56:31.959Z,91
2023-05-02T02:57:03.975Z,91
2023-05-02T02:57:36.056Z,91
2023-05-02T02:58:07.999Z,91
2023-05-02T02:58:35.867Z,91
2023-05-02T02:58:56.056Z,91
2023-05-02T02:59:28.698Z,91
2023-05-02T03:00:00.287Z,91
2023-05-02T03:00:32.509Z,91
2023-05-02T03:01:04.040Z,91
2023-05-02T03:01:36.097Z,91
2023-05-02T03:02:08.195Z,91
2023-05-02T03:02:36.393Z,91
2023-05-02T03:02:56.088Z,91
2023-05-02T03:03:28.088Z,91
2023-05-02T03:04:00.035Z,91
2023-05-02T03:04:32.086Z,91
2023-05-02T03:05:04.260Z,91
2023-05-02T03:05:37.609Z,91
2023-05-02T03:06:07.992Z,91
2023-05-02T03:06:35.638Z,91
2023-05-02T03:06:56.099Z,91
2023-05-02T03:07:28.029Z,91
2023-05-02T03:08:00.021Z,91
2023-05-02T03:08:31.983Z,91
2023-05-02T03:09:04.035Z,91
2023-05-02T03:09:36.216Z,91
2023-05-02T03:10:08.299Z,91
2023-05-02T03:10:35.577Z,91
2023-05-02T03:10:56.268Z,91
2023-05-02T03:11:29.474Z,91
2023-05-02T03:12:01.478Z,91
2023-05-02T03:12:31.990Z,91
2023-05-02T03:13:03.995Z,91
2023-05-02T03:13:36.007Z,91
2023-05-02T03:14:07.974Z,91
2023-05-02T03:14:35.586Z,91
2023-05-02T03:14:56.005Z,91
2023-05-02T03:15:29.068Z,91
2023-05-02T03:16:00.069Z,91
2023-05-02T03:16:32.042Z,91
2023-05-02T03:17:04.310Z,91
2023-05-02T03:17:36.118Z,91
2023-05-02T03:18:08.082Z,91
2023-05-02T03:18:35.586Z,91
2023-05-02T03:18:56.009Z,91
2023-05-02T03:19:27.981Z,91
2023-05-02T03:20:00.303Z,91
2023-05-02T03:20:32.252Z,91
2023-05-02T03:21:03.986Z,91
2023-05-02T03:21:36.774Z,91
2023-05-02T03:22:07.966Z,91
2023-05-02T03:22:35.543Z,91
2023-05-02T03:22:56.079Z,91
2023-05-02T03:23:27.981Z,91
2023-05-02T03:24:00.012Z,91
2023-05-02T03:24:32.011Z,91
2023-05-02T03:25:04.297Z,91
2023-05-02T03:25:36.005Z,91
2023-05-02T03:26:07.997Z,91
2023-05-02T03:26:35.575Z,91
2023-05-02T03:26:55.997Z,91
2023-05-02T03:27:27.977Z,91
2023-05-02T03:28:01.400Z,91
2023-05-02T03:28:31.989Z,91
2023-05-02T03:29:03.987Z,91
2023-05-02T03:29:36.046Z,91
2023-05-02T03:30:08.469Z,91
2023-05-02T03:30:35.610Z,91
2023-05-02T03:30:56.308Z,91
2023-05-02T03:31:28.165Z,91
2023-05-02T03:32:00.020Z,91
2023-05-02T03:32:32.086Z,91
2023-05-02T03:33:04.176Z,91
2023-05-02T03:33:36.379Z,91
2023-05-02T03:34:07.964Z,91
2023-05-02T03:34:35.582Z,91
2023-05-02T03:34:56.027Z,91
2023-05-02T03:35:28.257Z,91
2023-05-02T03:36:00.007Z,91
2023-05-02T03:36:31.989Z,91
2023-05-02T03:37:04.007Z,91
2023-05-02T03:37:37.501Z,91
2023-05-02T03:38:07.964Z,91
2023-05-02T03:38:35.581Z,91
2023-05-02T03:38:56.053Z,91
2023-05-02T03:39:28.049Z,91
2023-05-02T03:40:00.371Z,91
2023-05-02T03:40:32.235Z,91
2023-05-02T03:41:04.008Z,91
2023-05-02T03:41:36.059Z,91
2023-05-02T03:42:07.990Z,91
2023-05-02T03:42:35.537Z,91
2023-05-02T03:42:56.015Z,91
2023-05-02T03:43:27.978Z,91
2023-05-02T03:44:01.568Z,91
2023-05-02T03:44:31.969Z,91
2023-05-02T03:45:04.474Z,91
2023-05-02T03:45:36.161Z,91
2023-05-02T03:46:08.146Z,91
2023-05-02T03:46:36.060Z,91
2023-05-02T03:46:56.074Z,91
2023-05-02T03:47:28.019Z,91
2023-05-02T03:48:00.080Z,91
2023-05-02T03:48:32.005Z,91
2023-05-02T03:49:03.980Z,91
2023-05-02T03:49:36.047Z,91
2023-05-02T03:50:08.321Z,91
2023-05-02T03:50:35.562Z,91
2023-05-02T03:50:56.276Z,91
2023-05-02T03:51:27.998Z,91
2023-05-02T03:52:00.144Z,91
2023-05-02T03:52:31.984Z,91
2023-05-02T03:53:03.979Z,91
2023-05-02T03:53:36.786Z,91
2023-05-02T03:54:07.963Z,92
2023-05-02T03:54:35.552Z,92
2023-05-02T03:54:56.046Z,92
2023-05-02T03:55:28.246Z,91
2023-05-02T03:56:00.026Z,92
2023-05-02T03:56:32.028Z,92
2023-05-02T03:57:04.025Z,92
2023-05-02T03:57:36.029Z,92
2023-05-02T03:58:08.000Z,92
2023-05-02T03:58:35.562Z,92
2023-05-02T03:58:56.036Z,92
2023-05-02T03:59:27.994Z,91
2023-05-02T04:00:03.598Z,91
2023-05-02T04:00:31.996Z,91
2023-05-02T04:01:04.101Z,91
2023-05-02T04:01:36.085Z,91
2023-05-02T04:02:07.628Z,91
2023-05-02T04:02:35.251Z,91
2023-05-02T04:02:55.795Z,91
2023-05-02T04:03:29.810Z,91
2023-05-02T04:03:59.702Z,91
2023-05-02T04:04:31.590Z,91
2023-05-02T04:05:03.949Z,91
2023-05-02T04:05:35.594Z,91
2023-05-02T04:06:07.587Z,91
2023-05-02T04:06:37.253Z,91
2023-05-02T04:06:58.238Z,92
2023-05-02T04:07:30.409Z,92
2023-05-02T04:08:00.144Z,92
2023-05-02T04:08:32.133Z,92
2023-05-02T04:09:04.051Z,92
2023-05-02T04:09:36.902Z,92
2023-05-02T04:10:08.436Z,92
2023-05-02T04:10:35.706Z,92
2023-05-02T04:10:56.366Z,92
2023-05-02T04:11:28.334Z,92
2023-05-02T04:12:00.160Z,92
2023-05-02T04:12:32.128Z,92
2023-05-02T04:13:04.177Z,92
2023-05-02T04:13:36.155Z,92
2023-05-02T04:14:08.081Z,92
2023-05-02T04:14:35.725Z,91
2023-05-02T04:14:56.117Z,91
2023-05-02T04:15:28.922Z,91
2023-05-02T04:16:02.448Z,91
2023-05-02T04:16:32.173Z,91
2023-05-02T04:17:04.261Z,91
2023-05-02T04:17:36.211Z,91
2023-05-02T04:18:08.159Z,91
2023-05-02T04:18:35.785Z,91
2023-05-02T04:18:56.129Z,91
2023-05-02T04:19:28.408Z,91
2023-05-02T04:20:02.475Z,91
2023-05-02T04:20:32.485Z,91
2023-05-02T04:21:04.172Z,91
2023-05-02T04:21:36.128Z,91
2023-05-02T04:22:08.135Z,91
2023-05-02T04:22:35.688Z,91
2023-05-02T04:22:56.119Z,91
2023-05-02T04:23:28.395Z,91
2023-05-02T04:24:00.169Z,91
2023-05-02T04:24:32.126Z,91
2023-05-02T04:25:04.501Z,91
2023-05-02T04:25:37.812Z,91
2023-05-02T04:26:08.143Z,91
2023-05-02T04:26:35.755Z,91
2023-05-02T04:26:56.170Z,91
2023-05-02T04:27:28.427Z,91
2023-05-02T04:28:00.152Z,91
2023-05-02T04:28:32.145Z,91
2023-05-02T04:29:04.179Z,91
2023-05-02T04:29:36.123Z,91
2023-05-02T04:30:08.659Z,90
2023-05-02T04:30:35.775Z,90
2023-05-02T04:30:56.431Z,91
2023-05-02T04:31:28.462Z,90
2023-05-02T04:32:02.650Z,90
2023-05-02T04:32:32.192Z,90
2023-05-02T04:33:04.216Z,90
2023-05-02T04:33:36.123Z,90
2023-05-02T04:34:08.088Z,90
2023-05-02T04:34:35.650Z,90
2023-05-02T04:34:56.119Z,90
2023-05-02T04:35:28.648Z,90
2023-05-02T04:36:00.459Z,90
2023-05-02T04:36:32.144Z,90
2023-05-02T04:37:04.165Z,90
2023-05-02T04:37:36.093Z,90
2023-05-02T04:38:08.075Z,90
2023-05-02T04:38:35.754Z,90
2023-05-02T04:38:56.118Z,90
2023-05-02T04:39:28.409Z,90
2023-05-02T04:40:00.465Z,90
2023-05-02T04:40:32.375Z,90
2023-05-02T04:41:09.382Z,90
2023-05-02T04:41:37.719Z,90
2023-05-02T04:42:08.087Z,90
2023-05-02T04:42:35.657Z,90
2023-05-02T04:42:56.141Z,90
2023-05-02T04:43:28.390Z,90
2023-05-02T04:44:00.144Z,90
2023-05-02T04:44:32.134Z,90
2023-05-02T04:45:04.666Z,90
2023-05-02T04:45:36.152Z,90
2023-05-02T04:46:08.293Z,90
2023-05-02T04:46:36.013Z,90
2023-05-02T04:46:56.133Z,90
2023-05-02T04:47:28.448Z,90
2023-05-02T04:48:00.996Z,90
2023-05-02T04:48:32.139Z,90
2023-05-02T04:49:04.092Z,90
2023-05-02T04:49:36.104Z,90
2023-05-02T04:50:08.382Z,90
2023-05-02T04:50:35.606Z,90
2023-05-02T04:50:56.441Z,90
2023-05-02T04:51:28.415Z,90
2023-05-02T04:52:00.158Z,90
2023-05-02T04:52:32.119Z,90
2023-05-02T04:53:04.149Z,90
2023-05-02T04:53:36.141Z,90
2023-05-02T04:54:08.111Z,90
2023-05-02T04:54:35.642Z,90
2023-05-02T04:54:56.227Z,91
2023-05-02T04:55:28.742Z,91
2023-05-02T04:56:00.168Z,90
2023-05-02T04:56:32.231Z,91
2023-05-02T04:57:04.158Z,91
2023-05-02T04:57:36.976Z,90
2023-05-02T04:58:08.114Z,90
2023-05-02T04:58:35.645Z,91
2023-05-02T04:58:56.219Z,91
2023-05-02T04:59:28.423Z,91
2023-05-02T05:00:01.272Z,91
2023-05-02T05:00:32.147Z,90
2023-05-02T05:01:04.225Z,91
2023-05-02T05:01:36.170Z,90
2023-05-02T05:02:08.449Z,90
2023-05-02T05:02:35.790Z,90
2023-05-02T05:02:56.296Z,90
2023-05-02T05:03:28.593Z,90
2023-05-02T05:04:01.075Z,90
2023-05-02T05:04:32.095Z,90
2023-05-02T05:05:04.500Z,90
2023-05-02T05:05:36.161Z,90
2023-05-02T05:06:08.241Z,90
2023-05-02T05:06:35.763Z,90
2023-05-02T05:06:56.286Z,90
2023-05-02T05:07:28.479Z,90
2023-05-02T05:08:00.188Z,90
2023-05-02T05:08:32.150Z,90
2023-05-02T05:09:04.131Z,90
2023-05-02T05:09:36.129Z,90
2023-05-02T05:10:08.446Z,90
2023-05-02T05:10:35.665Z,90
2023-05-02T05:10:56.352Z,90
2023-05-02T05:11:28.430Z,90
2023-05-02T05:12:00.146Z,90
2023-05-02T05:12:32.066Z,90
2023-05-02T05:13:04.141Z,90
2023-05-02T05:13:36.900Z,90
2023-05-02T05:14:08.156Z,90
2023-05-02T05:14:35.660Z,90
2023-05-02T05:14:56.085Z,89
2023-05-02T05:15:28.951Z,89
2023-05-02T05:16:00.313Z,89
2023-05-02T05:16:32.168Z,89
2023-05-02T05:17:04.182Z,89
2023-05-02T05:17:36.527Z,89
2023-05-02T05:18:08.129Z,89
2023-05-02T05:18:35.859Z,89
2023-05-02T05:18:56.221Z,89
2023-05-02T05:19:28.494Z,89
2023-05-02T05:20:02.924Z,89
2023-05-02T05:20:32.919Z,89
2023-05-02T05:21:04.087Z,89
2023-05-02T05:21:36.108Z,89
2023-05-02T05:22:08.074Z,89
2023-05-02T05:22:35.626Z,89
2023-05-02T05:22:56.097Z,89
2023-05-02T05:23:28.533Z,89
2023-05-02T05:24:00.157Z,89
2023-05-02T05:24:32.153Z,89
2023-05-02T05:25:04.385Z,89
2023-05-02T05:25:36.642Z,89
2023-05-02T05:26:08.134Z,89
2023-05-02T05:26:35.662Z,89
2023-05-02T05:26:56.090Z,89
2023-05-02T05:27:28.554Z,89
2023-05-02T05:28:00.415Z,89
2023-05-02T05:28:32.100Z,89
2023-05-02T05:29:04.106Z,89
2023-05-02T05:29:37.930Z,89
2023-05-02T05:30:08.636Z,89
2023-05-02T05:30:35.635Z,89
2023-05-02T05:30:56.369Z,89
2023-05-02T05:31:28.533Z,89
2023-05-02T05:32:00.277Z,89
2023-05-02T05:32:32.287Z,89
2023-05-02T05:33:04.262Z,89
2023-05-02T05:33:36.160Z,89
2023-05-02T05:34:08.111Z,89
2023-05-02T05:34:35.643Z,89
2023-05-02T05:34:56.096Z,89
2023-05-02T05:35:28.851Z,89
2023-05-02T05:36:01.033Z,89
2023-05-02T05:36:32.303Z,89
2023-05-02T05:37:04.089Z,89
2023-05-02T05:37:36.110Z,89
2023-05-02T05:38:08.073Z,89
2023-05-02T05:38:35.793Z,89
2023-05-02T05:38:56.097Z,89
2023-05-02T05:39:28.633Z,89
2023-05-02T05:40:00.985Z,89
2023-05-02T05:40:32.156Z,89
2023-05-02T05:41:04.123Z,89
2023-05-02T05:41:36.132Z,89
2023-05-02T05:42:08.091Z,89
2023-05-02T05:42:35.857Z,89
2023-05-02T05:42:56.075Z,89
2023-05-02T05:43:28.554Z,89
2023-05-02T05:44:00.088Z,89
2023-05-02T05:44:32.091Z,89
2023-05-02T05:45:05.386Z,89
2023-05-02T05:45:36.809Z,89
2023-05-02T05:46:08.279Z,89
2023-05-02T05:46:35.664Z,89
2023-05-02T05:46:56.199Z,89
2023-05-02T05:47:28.888Z,89
2023-05-02T05:48:00.249Z,89
2023-05-02T05:48:32.089Z,89
2023-05-02T05:49:04.165Z,89
2023-05-02T05:49:38.476Z,89
2023-05-02T05:50:08.387Z,89
2023-05-02T05:50:35.607Z,89
2023-05-02T05:50:56.320Z,89
2023-05-02T05:51:28.586Z,89
2023-05-02T05:52:00.941Z,89
2023-05-02T05:52:32.103Z,89
2023-05-02T05:53:04.142Z,89
2023-05-02T05:53:36.287Z,89
2023-05-02T05:54:08.117Z,89
2023-05-02T05:54:35.718Z,89
2023-05-02T05:54:56.341Z,89
2023-05-02T05:55:28.835Z,89
2023-05-02T05:56:00.240Z,89
2023-05-02T05:56:32.115Z,89
2023-05-02T05:57:04.165Z,89
2023-05-02T05:57:36.115Z,89
2023-05-02T05:58:08.115Z,89
2023-05-02T05:58:35.967Z,89
2023-05-02T05:58:56.109Z,90
2023-05-02T05:59:28.653Z,90
2023-05-02T06:00:00.548Z,90
2023-05-02T06:00:34.775Z,90
2023-05-02T06:01:04.101Z,89
2023-05-02T06:01:39.877Z,89
2023-05-02T06:02:08.158Z,89
2023-05-02T06:02:35.709Z,90
2023-05-02T06:02:56.209Z,90
2023-05-02T06:03:28.705Z,90
2023-05-02T06:04:02.057Z,90
2023-05-02T06:04:32.147Z,90
2023-05-02T06:05:04.710Z,90
2023-05-02T06:05:36.095Z,90
2023-05-02T06:06:08.125Z,90
2023-05-02T06:06:36.741Z,90
2023-05-02T06:06:56.168Z,90
2023-05-02T06:07:28.608Z,90
2023-05-02T06:08:00.909Z,89
2023-05-02T06:08:32.148Z,90
2023-05-02T06:09:04.154Z,89
2023-05-02T06:09:36.362Z,90
2023-05-02T06:10:08.418Z,90
2023-05-02T06:10:35.792Z,90
2023-05-02T06:10:56.372Z,89
2023-05-02T06:11:28.627Z,89
2023-05-02T06:12:00.177Z,89
2023-05-02T06:12:32.116Z,89
2023-05-02T06:13:04.150Z,89
2023-05-02T06:13:36.078Z,89
2023-05-02T06:14:08.077Z,89
2023-05-02T06:14:35.631Z,89
2023-05-02T06:14:56.070Z,89
2023-05-02T06:15:29.062Z,89
2023-05-02T06:16:03.213Z,89
2023-05-02T06:16:32.254Z,89
2023-05-02T06:17:04.136Z,89
2023-05-02T06:17:37.011Z,89
2023-05-02T06:18:08.222Z,89
2023-05-02T06:18:35.651Z,89
2023-05-02T06:18:56.104Z,89
2023-05-02T06:19:28.626Z,89
2023-05-02T06:20:03.273Z,89
2023-05-02T06:20:32.125Z,89
2023-05-02T06:21:04.148Z,89
2023-05-02T06:21:36.122Z,89
2023-05-02T06:22:08.121Z,89
2023-05-02T06:22:35.655Z,89
2023-05-02T06:22:56.087Z,89
2023-05-02T06:23:28.449Z,89
2023-05-02T06:24:00.869Z,89
2023-05-02T06:24:32.070Z,89
2023-05-02T06:25:04.409Z,89
2023-05-02T06:25:36.033Z,89
2023-05-02T06:26:08.079Z,89
2023-05-02T06:26:35.642Z,89
2023-05-02T06:26:56.178Z,89
2023-05-02T06:27:28.687Z,89
2023-05-02T06:28:00.336Z,89
2023-05-02T06:28:32.249Z,88
2023-05-02T06:29:04.223Z,88
2023-05-02T06:29:36.195Z,88
2023-05-02T06:30:09.026Z,88
2023-05-02T06:30:36.064Z,88
2023-05-02T06:30:56.412Z,88
2023-05-02T06:31:28.692Z,88
2023-05-02T06:32:00.512Z,88
2023-05-02T06:32:32.318Z,88
2023-05-02T06:33:04.523Z,88
2023-05-02T06:33:36.874Z,88
2023-05-02T06:34:08.201Z,88
2023-05-02T06:34:35.737Z,87
2023-05-02T06:34:56.226Z,87
2023-05-02T06:35:28.871Z,87
2023-05-02T06:36:01.723Z,86
2023-05-02T06:36:32.265Z,86
2023-05-02T06:37:04.302Z,86
2023-05-02T06:37:36.233Z,86
2023-05-02T06:38:08.192Z,85
2023-05-02T06:38:35.738Z,85
2023-05-02T06:38:56.184Z,85
2023-05-02T06:39:28.642Z,85
2023-05-02T06:40:03.090Z,85
2023-05-02T06:40:33.352Z,85
2023-05-02T06:41:04.254Z,85
2023-05-02T06:41:36.281Z,85
2023-05-02T06:42:08.194Z,85
2023-05-02T06:42:37.636Z,85
2023-05-02T06:42:56.184Z,85
2023-05-02T06:43:28.734Z,84
2023-05-02T06:44:00.357Z,84
2023-05-02T06:44:33.146Z,83
2023-05-02T06:45:04.784Z,83
2023-05-02T06:45:36.314Z,83
2023-05-02T06:46:08.458Z,83
2023-05-02T06:46:35.804Z,83
2023-05-02T06:46:56.308Z,83
2023-05-02T06:47:28.689Z,82
2023-05-02T06:48:01.163Z,82
2023-05-02T06:48:32.161Z,82
2023-05-02T06:49:04.183Z,82
2023-05-02T06:49:36.844Z,83
2023-05-02T06:50:08.483Z,82
2023-05-02T06:50:35.747Z,82
2023-05-02T06:50:56.443Z,82
2023-05-02T06:51:28.684Z,82
2023-05-02T06:52:00.656Z,81
2023-05-02T06:52:32.277Z,82
2023-05-02T06:53:04.241Z,82
2023-05-02T06:53:36.390Z,82
2023-05-02T06:54:08.254Z,82
2023-05-02T06:54:35.957Z,82
2023-05-02T06:54:56.196Z,82
2023-05-02T06:55:28.970Z,81
2023-05-02T06:56:01.149Z,80
2023-05-02T06:56:32.220Z,81
2023-05-02T06:57:04.314Z,81
2023-05-02T06:57:36.199Z,81
2023-05-02T06:58:09.700Z,81
2023-05-02T06:58:35.782Z,81
2023-05-02T06:58:56.183Z,81
2023-05-02T06:59:28.758Z,81
2023-05-02T07:00:02.011Z,81
2023-05-02T07:00:32.270Z,81
2023-05-02T07:01:04.270Z,81
2023-05-02T07:01:36.544Z,81
2023-05-02T07:02:08.204Z,81
2023-05-02T07:02:35.842Z,81
2023-05-02T07:02:56.183Z,81
2023-05-02T07:03:28.733Z,81
2023-05-02T07:04:00.238Z,81
2023-05-02T07:04:32.263Z,81
2023-05-02T07:05:04.474Z,81
2023-05-02T07:05:37.757Z,81
2023-05-02T07:06:08.180Z,81
2023-05-02T07:06:35.948Z,81
2023-05-02T07:06:56.269Z,81
2023-05-02T07:07:28.800Z,80